createdAt,value
2017-12-19T00:00:42.982Z,91.53
2017-12-19T00:01:22.238Z,91.05
2017-12-19T00:02:22.662Z,91.81
2017-12-19T00:03:23.074Z,91.43
2017-12-19T00:04:23.484Z,90.39
2017-12-19T00:05:23.906Z,90.86
2017-12-19T00:06:45.480Z,90.39
2017-12-19T00:07:24.739Z,90.68
2017-12-19T00:08:25.158Z,90.68
2017-12-19T00:09:25.587Z,90.68
2017-12-19T00:10:25.989Z,90.20
2017-12-19T00:11:26.412Z,90.39
2017-12-19T00:12:47.986Z,90.39
2017-12-19T00:13:27.264Z,90.49
2017-12-19T00:14:27.666Z,90.49
2017-12-19T00:15:28.080Z,90.86
2017-12-19T00:16:28.560Z,90.49
2017-12-19T00:17:28.914Z,90.86
2017-12-19T00:18:50.491Z,90.68
2017-12-19T00:19:29.755Z,90.68
2017-12-19T00:20:30.175Z,90.68
2017-12-19T00:21:30.592Z,90.39
2017-12-19T00:22:31.018Z,90.77
2017-12-19T00:23:31.429Z,90.49
2017-12-19T00:24:52.996Z,90.68
2017-12-19T00:25:32.268Z,90.58
2017-12-19T00:26:32.673Z,90.58
2017-12-19T00:27:33.093Z,90.68
2017-12-19T00:28:33.543Z,90.68
2017-12-19T00:29:33.958Z,90.58
2017-12-19T00:30:55.500Z,90.58
2017-12-19T00:31:34.762Z,90.49
2017-12-19T00:32:35.198Z,90.77
2017-12-19T00:33:35.602Z,90.58
2017-12-19T00:34:36.023Z,90.39
2017-12-19T00:35:36.432Z,90.68
2017-12-19T00:36:58.034Z,90.11
2017-12-19T00:37:37.270Z,90.11
2017-12-19T00:38:37.693Z,89.92
2017-12-19T00:39:38.102Z,90.01
2017-12-19T00:40:38.521Z,90.11
2017-12-19T00:41:38.941Z,90.20
2017-12-19T00:43:00.514Z,90.11
2017-12-19T00:43:39.773Z,90.30
2017-12-19T00:44:40.194Z,90.39
2017-12-19T00:45:40.607Z,89.26
2017-12-19T00:46:41.080Z,89.26
2017-12-19T00:47:41.448Z,88.88
2017-12-19T00:49:03.020Z,89.07
2017-12-19T00:49:42.284Z,88.60
2017-12-19T00:50:42.701Z,88.22
2017-12-19T00:51:43.125Z,88.12
2017-12-19T00:52:43.532Z,88.03
2017-12-19T00:53:43.963Z,87.84
2017-12-19T00:55:05.521Z,88.12
2017-12-19T00:55:44.790Z,88.03
2017-12-19T00:56:45.209Z,88.12
2017-12-19T00:57:45.666Z,88.50
2017-12-19T00:58:46.055Z,88.41
2017-12-19T00:59:46.467Z,88.69
2017-12-19T01:01:08.031Z,88.98
2017-12-19T01:01:47.298Z,88.88
2017-12-19T01:02:47.725Z,89.36
2017-12-19T01:03:48.132Z,89.73
2017-12-19T01:04:48.556Z,89.83
2017-12-19T01:05:48.965Z,90.20
2017-12-19T01:07:10.543Z,90.16
2017-12-19T01:07:49.793Z,90.68
2017-12-19T01:08:50.211Z,90.86
2017-12-19T01:09:50.634Z,90.39
2017-12-19T01:10:51.045Z,90.44
2017-12-19T01:11:51.471Z,91.48
2017-12-19T01:13:13.037Z,90.91
2017-12-19T01:13:52.294Z,91.58
2017-12-19T01:14:52.713Z,91.20
2017-12-19T01:15:53.130Z,91.77
2017-12-19T01:16:53.551Z,91.77
2017-12-19T01:17:53.979Z,91.96
2017-12-19T01:19:15.538Z,92.52
2017-12-19T01:19:54.812Z,92.71
2017-12-19T01:20:55.225Z,92.61
2017-12-19T01:21:55.661Z,92.80
2017-12-19T01:22:56.065Z,93.09
2017-12-19T01:23:56.481Z,92.99
2017-12-19T01:25:18.043Z,93.09
2017-12-19T01:25:57.314Z,92.99
2017-12-19T01:26:57.725Z,92.99
2017-12-19T01:27:58.146Z,93.18
2017-12-19T01:28:58.570Z,92.99
2017-12-19T01:29:58.988Z,93.09
2017-12-19T01:31:20.559Z,93.09
2017-12-19T01:31:59.822Z,92.99
2017-12-19T01:33:00.241Z,92.99
2017-12-19T01:34:00.656Z,93.28
2017-12-19T01:35:01.075Z,92.99
2017-12-19T01:36:01.486Z,92.99
2017-12-19T01:37:23.068Z,92.61
2017-12-19T01:38:02.324Z,92.80
2017-12-19T01:39:02.737Z,92.71
2017-12-19T01:40:03.167Z,92.80
2017-12-19T01:41:03.581Z,92.61
2017-12-19T01:42:03.989Z,92.52
2017-12-19T01:43:25.567Z,92.80
2017-12-19T01:44:04.826Z,92.33
2017-12-19T01:45:05.244Z,92.61
2017-12-19T01:46:05.661Z,92.61
2017-12-19T01:47:06.080Z,92.71
2017-12-19T01:48:06.500Z,93.09
2017-12-19T01:49:28.076Z,92.61
2017-12-19T01:50:07.342Z,92.61
2017-12-19T01:51:07.765Z,92.61
2017-12-19T01:52:08.175Z,93.28
2017-12-19T01:53:08.597Z,93.28
2017-12-19T01:54:09.010Z,93.18
2017-12-19T01:55:30.591Z,92.80
2017-12-19T01:56:09.843Z,92.99
2017-12-19T01:57:10.263Z,93.47
2017-12-19T01:58:10.678Z,93.66
2017-12-19T01:59:11.107Z,93.85
2017-12-19T02:00:11.517Z,93.94
2017-12-19T02:01:33.086Z,94.13
2017-12-19T02:02:12.357Z,94.23
2017-12-19T02:03:12.800Z,94.23
2017-12-19T02:04:13.184Z,93.85
2017-12-19T02:05:13.614Z,93.94
2017-12-19T02:06:14.027Z,94.42
2017-12-19T02:07:35.597Z,94.04
2017-12-19T02:08:14.860Z,94.04
2017-12-19T02:09:15.277Z,93.94
2017-12-19T02:10:15.695Z,94.23
2017-12-19T02:11:16.117Z,94.60
2017-12-19T02:12:16.581Z,94.42
2017-12-19T02:13:38.109Z,94.79
2017-12-19T02:14:17.377Z,94.60
2017-12-19T02:15:17.795Z,94.79
2017-12-19T02:16:18.206Z,94.60
2017-12-19T02:17:18.621Z,94.70
2017-12-19T02:18:19.043Z,94.70
2017-12-19T02:19:40.656Z,94.89
2017-12-19T02:20:19.876Z,95.45
2017-12-19T02:21:20.304Z,95.55
2017-12-19T02:22:20.710Z,95.55
2017-12-19T02:23:21.259Z,95.55
2017-12-19T02:24:21.546Z,95.64
2017-12-19T02:25:43.177Z,95.45
2017-12-19T02:26:22.379Z,95.83
2017-12-19T02:27:22.808Z,95.55
2017-12-19T02:28:23.219Z,95.55
2017-12-19T02:29:23.646Z,95.93
2017-12-19T02:30:24.055Z,95.45
2017-12-19T02:31:45.632Z,94.89
2017-12-19T02:32:24.897Z,94.98
2017-12-19T02:33:25.317Z,94.70
2017-12-19T02:34:25.730Z,94.98
2017-12-19T02:35:26.151Z,94.70
2017-12-19T02:36:26.582Z,95.12
2017-12-19T02:37:48.138Z,94.70
2017-12-19T02:38:27.402Z,95.88
2017-12-19T02:39:27.816Z,95.45
2017-12-19T02:40:28.239Z,95.83
2017-12-19T02:41:28.660Z,95.36
2017-12-19T02:42:29.077Z,95.50
2017-12-19T02:43:50.650Z,95.59
2017-12-19T02:44:29.913Z,95.55
2017-12-19T02:45:30.327Z,95.64
2017-12-19T02:46:30.749Z,94.98
2017-12-19T02:47:31.170Z,94.70
2017-12-19T02:48:31.581Z,95.26
2017-12-19T02:49:53.158Z,94.79
2017-12-19T02:50:32.418Z,94.51
2017-12-19T02:51:32.844Z,94.65
2017-12-19T02:52:33.256Z,94.56
2017-12-19T02:53:33.669Z,94.56
2017-12-19T02:54:34.090Z,94.46
2017-12-19T02:55:55.664Z,94.46
2017-12-19T02:56:34.928Z,94.56
2017-12-19T02:57:35.346Z,94.46
2017-12-19T02:58:35.783Z,94.65
2017-12-19T02:59:36.189Z,94.93
2017-12-19T03:00:36.610Z,94.74
2017-12-19T03:01:58.177Z,94.93
2017-12-19T03:02:37.451Z,95.03
2017-12-19T03:03:37.864Z,94.74
2017-12-19T03:04:38.281Z,95.88
2017-12-19T03:05:38.698Z,95.50
2017-12-19T03:06:39.118Z,95.50
2017-12-19T03:08:00.692Z,96.07
2017-12-19T03:08:39.952Z,95.97
2017-12-19T03:09:40.375Z,95.88
2017-12-19T03:10:40.787Z,96.26
2017-12-19T03:11:41.204Z,96.16
2017-12-19T03:12:41.640Z,96.73
2017-12-19T03:14:03.199Z,96.92
2017-12-19T03:14:42.471Z,96.64
2017-12-19T03:15:42.885Z,96.45
2017-12-19T03:16:43.307Z,96.45
2017-12-19T03:17:43.724Z,96.64
2017-12-19T03:18:44.140Z,97.11
2017-12-19T03:20:05.726Z,97.11
2017-12-19T03:20:44.985Z,97.49
2017-12-19T03:21:45.396Z,97.30
2017-12-19T03:22:45.820Z,97.39
2017-12-19T03:23:46.231Z,97.39
2017-12-19T03:24:46.661Z,97.39
2017-12-19T03:26:08.300Z,97.30
2017-12-19T03:26:47.489Z,97.20
2017-12-19T03:27:47.910Z,97.49
2017-12-19T03:28:48.335Z,97.30
2017-12-19T03:29:48.764Z,97.30
2017-12-19T03:30:49.178Z,97.30
2017-12-19T03:32:10.756Z,97.30
2017-12-19T03:32:50.005Z,97.49
2017-12-19T03:33:50.426Z,97.58
2017-12-19T03:34:50.835Z,97.02
2017-12-19T03:35:51.255Z,97.20
2017-12-19T03:36:51.678Z,97.20
2017-12-19T03:38:13.257Z,96.92
2017-12-19T03:38:52.520Z,97.02
2017-12-19T03:39:52.937Z,96.73
2017-12-19T03:40:53.361Z,96.92
2017-12-19T03:41:53.783Z,97.11
2017-12-19T03:42:54.195Z,97.02
2017-12-19T03:44:15.784Z,96.83
2017-12-19T03:44:55.040Z,97.02
2017-12-19T03:45:55.456Z,97.49
2017-12-19T03:46:55.876Z,97.30
2017-12-19T03:47:56.314Z,97.39
2017-12-19T03:48:56.704Z,97.39
2017-12-19T03:50:18.285Z,97.11
2017-12-19T03:50:57.616Z,97.30
2017-12-19T03:51:57.977Z,97.30
2017-12-19T03:52:58.381Z,97.20
2017-12-19T03:53:58.824Z,97.30
2017-12-19T03:54:59.221Z,97.39
2017-12-19T03:56:20.794Z,97.11
2017-12-19T03:57:00.064Z,97.11
2017-12-19T03:58:00.487Z,97.39
2017-12-19T03:59:00.896Z,97.30
2017-12-19T04:00:01.340Z,97.49
2017-12-19T04:01:01.735Z,97.39
2017-12-19T04:02:23.309Z,97.49
2017-12-19T04:03:02.569Z,97.39
2017-12-19T04:04:02.984Z,97.20
2017-12-19T04:05:03.412Z,97.58
2017-12-19T04:06:03.822Z,96.92
2017-12-19T04:07:04.241Z,95.78
2017-12-19T04:08:25.820Z,95.50
2017-12-19T04:09:05.085Z,95.21
2017-12-19T04:10:05.496Z,95.40
2017-12-19T04:11:05.935Z,95.97
2017-12-19T04:12:06.346Z,95.69
2017-12-19T04:13:06.786Z,95.97
2017-12-19T04:14:28.347Z,96.07
2017-12-19T04:15:07.595Z,96.64
2017-12-19T04:16:08.017Z,96.26
2017-12-19T04:17:08.462Z,96.64
2017-12-19T04:18:08.859Z,96.45
2017-12-19T04:19:09.267Z,97.20
2017-12-19T04:20:30.851Z,97.02
2017-12-19T04:21:10.134Z,97.02
2017-12-19T04:22:10.541Z,97.02
2017-12-19T04:23:10.951Z,96.97
2017-12-19T04:24:11.361Z,97.16
2017-12-19T04:25:11.790Z,97.16
2017-12-19T04:26:33.364Z,97.25
2017-12-19T04:27:12.627Z,97.63
2017-12-19T04:28:13.051Z,97.35
2017-12-19T04:29:13.464Z,97.35
2017-12-19T04:30:13.903Z,97.25
2017-12-19T04:31:14.301Z,97.54
2017-12-19T04:32:35.874Z,97.58
2017-12-19T04:33:15.152Z,97.49
2017-12-19T04:34:15.559Z,97.49
2017-12-19T04:35:15.978Z,97.20
2017-12-19T04:36:16.394Z,97.11
2017-12-19T04:37:16.818Z,97.30
2017-12-19T04:38:38.396Z,97.30
2017-12-19T04:39:17.655Z,97.11
2017-12-19T04:40:18.071Z,97.49
2017-12-19T04:41:18.498Z,97.58
2017-12-19T04:42:18.916Z,97.11
2017-12-19T04:43:19.328Z,97.58
2017-12-19T04:44:40.907Z,97.39
2017-12-19T04:45:20.168Z,97.73
2017-12-19T04:46:20.582Z,97.54
2017-12-19T04:47:21.014Z,97.73
2017-12-19T04:48:21.451Z,96.97
2017-12-19T04:49:21.847Z,97.02
2017-12-19T04:50:43.417Z,97.06
2017-12-19T04:51:22.683Z,96.88
2017-12-19T04:52:23.104Z,97.06
2017-12-19T04:53:23.530Z,97.06
2017-12-19T04:54:23.956Z,97.06
2017-12-19T04:55:24.363Z,96.50
2017-12-19T04:56:45.951Z,97.63
2017-12-19T04:57:25.206Z,97.54
2017-12-19T04:58:25.615Z,97.44
2017-12-19T04:59:26.044Z,97.82
2017-12-19T05:00:26.447Z,97.73
2017-12-19T05:01:26.876Z,97.54
2017-12-19T05:02:48.450Z,97.92
2017-12-19T05:03:27.714Z,97.92
2017-12-19T05:04:28.139Z,97.92
2017-12-19T05:05:28.576Z,97.63
2017-12-19T05:06:29.001Z,97.63
2017-12-19T05:07:29.388Z,97.54
2017-12-19T05:08:50.970Z,97.63
2017-12-19T05:09:30.251Z,97.92
2017-12-19T05:10:30.643Z,97.73
2017-12-19T05:11:31.075Z,97.63
2017-12-19T05:12:31.483Z,0.00
2017-12-19T05:13:31.902Z,97.73
2017-12-19T05:14:53.479Z,0.00
2017-12-19T05:15:32.748Z,0.00
2017-12-19T05:16:33.234Z,0.00
2017-12-19T05:17:33.575Z,0.00
2017-12-19T05:18:33.998Z,0.00
2017-12-19T05:19:34.443Z,0.00
2017-12-19T05:20:55.991Z,0.00
2017-12-19T05:21:35.260Z,0.00
2017-12-19T05:22:35.687Z,0.00
2017-12-19T05:23:36.097Z,0.00
2017-12-19T05:24:36.520Z,0.00
2017-12-19T05:25:36.952Z,0.00
2017-12-19T05:26:58.506Z,97.73
2017-12-19T05:27:37.797Z,0.00
2017-12-19T05:28:38.199Z,0.00
2017-12-19T05:29:38.622Z,0.00
2017-12-19T05:30:39.041Z,0.00
2017-12-19T05:31:39.458Z,0.00
2017-12-19T05:33:01.035Z,0.00
2017-12-19T05:33:40.292Z,97.73
2017-12-19T05:34:40.757Z,97.44
2017-12-19T05:35:41.142Z,0.00
2017-12-19T05:36:41.560Z,97.63
2017-12-19T05:37:41.975Z,97.16
2017-12-19T05:39:03.547Z,97.16
2017-12-19T05:39:42.805Z,0.00
2017-12-19T05:40:43.272Z,96.59
2017-12-19T05:41:43.650Z,96.59
2017-12-19T05:42:44.072Z,96.78
2017-12-19T05:43:44.490Z,97.06
2017-12-19T05:45:06.065Z,96.78
2017-12-19T05:45:45.325Z,97.06
2017-12-19T05:46:45.747Z,97.16
2017-12-19T05:47:46.165Z,96.97
2017-12-19T05:48:46.578Z,96.69
2017-12-19T05:49:47.019Z,97.73
2017-12-19T05:51:08.573Z,97.44
2017-12-19T05:51:47.922Z,96.88
2017-12-19T05:52:48.266Z,97.35
2017-12-19T05:53:48.705Z,97.35
2017-12-19T05:54:49.104Z,97.63
2017-12-19T05:55:49.521Z,97.63
2017-12-19T05:57:11.102Z,97.63
2017-12-19T05:57:50.370Z,97.35
2017-12-19T05:58:50.781Z,97.73
2017-12-19T05:59:51.196Z,97.35
2017-12-19T06:00:51.618Z,97.73
2017-12-19T06:01:52.038Z,97.82
2017-12-19T06:03:13.620Z,97.82
2017-12-19T06:03:52.877Z,97.82
2017-12-19T06:04:53.297Z,97.54
2017-12-19T06:05:53.717Z,97.87
2017-12-19T06:06:54.135Z,97.97
2017-12-19T06:07:54.567Z,97.59
2017-12-19T06:09:16.130Z,98.16
2017-12-19T06:09:55.401Z,97.97
2017-12-19T06:10:55.841Z,97.97
2017-12-19T06:11:56.237Z,97.68
2017-12-19T06:12:56.658Z,97.63
2017-12-19T06:13:57.089Z,96.69
2017-12-19T06:15:18.659Z,95.93
2017-12-19T06:15:58.026Z,96.21
2017-12-19T06:16:58.391Z,95.83
2017-12-19T06:17:58.754Z,95.64
2017-12-19T06:18:59.173Z,94.79
2017-12-19T06:19:59.587Z,94.04
2017-12-19T06:21:21.168Z,94.04
2017-12-19T06:22:00.433Z,94.98
2017-12-19T06:23:00.861Z,94.79
2017-12-19T06:24:01.276Z,94.79
2017-12-19T06:25:01.732Z,94.89
2017-12-19T06:26:02.111Z,94.42
2017-12-19T06:27:23.687Z,94.13
2017-12-19T06:28:02.990Z,93.46
2017-12-19T06:29:03.374Z,94.13
2017-12-19T06:30:03.792Z,93.84
2017-12-19T06:31:04.216Z,93.75
2017-12-19T06:32:04.624Z,93.94
2017-12-19T06:33:26.203Z,93.56
2017-12-19T06:34:05.469Z,92.99
2017-12-19T06:35:05.890Z,93.27
2017-12-19T06:36:06.304Z,92.33
2017-12-19T06:37:06.726Z,91.48
2017-12-19T06:38:07.143Z,90.81
2017-12-19T06:39:28.735Z,90.72
2017-12-19T06:40:07.988Z,90.72
2017-12-19T06:41:08.406Z,91.00
2017-12-19T06:42:08.822Z,91.67
2017-12-19T06:43:09.244Z,92.05
2017-12-19T06:44:09.660Z,92.61
2017-12-19T06:45:31.238Z,93.37
2017-12-19T06:46:10.495Z,93.37
2017-12-19T06:47:10.920Z,93.08
2017-12-19T06:48:11.342Z,93.46
2017-12-19T06:49:11.754Z,93.08
2017-12-19T06:50:12.177Z,92.14
2017-12-19T06:51:33.750Z,92.24
2017-12-19T06:52:13.023Z,92.33
2017-12-19T06:53:13.584Z,92.52
2017-12-19T06:54:13.856Z,92.24
2017-12-19T06:55:14.271Z,92.33
2017-12-19T06:56:14.728Z,92.94
2017-12-19T06:57:36.267Z,92.33
2017-12-19T06:58:15.535Z,91.95
2017-12-19T06:59:15.954Z,92.80
2017-12-19T07:00:16.393Z,91.67
2017-12-19T07:01:16.790Z,91.48
2017-12-19T07:02:17.214Z,91.48
2017-12-19T07:03:38.801Z,90.53
2017-12-19T07:04:18.060Z,89.49
2017-12-19T07:05:18.474Z,89.39
2017-12-19T07:06:18.886Z,90.06
2017-12-19T07:07:19.312Z,89.87
2017-12-19T07:08:19.737Z,89.96
2017-12-19T07:09:41.310Z,90.25
2017-12-19T07:10:20.583Z,90.91
2017-12-19T07:11:20.997Z,91.67
2017-12-19T07:12:21.413Z,91.76
2017-12-19T07:13:21.829Z,90.72
2017-12-19T07:14:22.254Z,90.72
2017-12-19T07:15:43.836Z,91.38
2017-12-19T07:16:23.107Z,91.67
2017-12-19T07:17:23.504Z,92.19
2017-12-19T07:18:23.931Z,92.19
2017-12-19T07:19:24.353Z,92.85
2017-12-19T07:20:24.773Z,92.94
2017-12-19T07:21:46.352Z,92.85
2017-12-19T07:22:25.615Z,93.04
2017-12-19T07:23:26.025Z,93.13
2017-12-19T07:24:26.514Z,92.76
2017-12-19T07:25:26.875Z,93.27
2017-12-19T07:26:27.288Z,92.57
2017-12-19T07:27:48.864Z,93.04
2017-12-19T07:28:28.169Z,92.76
2017-12-19T07:29:28.569Z,93.32
2017-12-19T07:30:28.972Z,93.89
2017-12-19T07:31:29.408Z,93.42
2017-12-19T07:32:29.817Z,93.80
2017-12-19T07:33:51.389Z,93.89
2017-12-19T07:34:30.660Z,93.23
2017-12-19T07:35:31.072Z,93.04
2017-12-19T07:36:31.500Z,0.00
2017-12-19T07:37:31.937Z,93.80
2017-12-19T07:38:32.320Z,93.99
2017-12-19T07:39:53.900Z,93.13
2017-12-19T07:40:33.168Z,93.13
2017-12-19T07:41:33.596Z,93.32
2017-12-19T07:42:34.017Z,93.42
2017-12-19T07:43:34.444Z,93.23
2017-12-19T07:44:34.848Z,93.61
2017-12-19T07:45:56.443Z,93.42
2017-12-19T07:46:35.691Z,92.76
2017-12-19T07:47:36.099Z,92.19
2017-12-19T07:48:36.528Z,91.62
2017-12-19T07:49:36.950Z,91.71
2017-12-19T07:50:37.399Z,91.90
2017-12-19T07:51:59.006Z,90.95
2017-12-19T07:52:38.255Z,90.81
2017-12-19T07:53:38.629Z,90.06
2017-12-19T07:54:39.044Z,88.64
2017-12-19T07:55:39.466Z,89.44
2017-12-19T07:56:39.964Z,89.01
2017-12-19T07:58:01.464Z,88.35
2017-12-19T07:58:40.720Z,86.55
2017-12-19T07:59:41.153Z,85.99
2017-12-19T08:00:41.576Z,86.18
2017-12-19T08:01:41.999Z,86.65
2017-12-19T08:02:42.405Z,85.89
2017-12-19T08:04:03.995Z,86.27
2017-12-19T08:04:43.243Z,86.22
2017-12-19T08:05:43.690Z,86.27
2017-12-19T08:06:44.097Z,86.27
2017-12-19T08:07:44.515Z,85.80
2017-12-19T08:08:44.931Z,86.27
2017-12-19T08:10:06.507Z,86.36
2017-12-19T08:10:45.774Z,85.89
2017-12-19T08:11:46.192Z,85.80
2017-12-19T08:12:46.603Z,86.12
2017-12-19T08:13:47.028Z,86.31
2017-12-19T08:14:47.441Z,86.79
2017-12-19T08:16:09.020Z,87.64
2017-12-19T08:16:48.286Z,86.93
2017-12-19T08:17:48.705Z,86.98
2017-12-19T08:18:49.132Z,86.98
2017-12-19T08:19:49.551Z,86.88
2017-12-19T08:20:49.970Z,85.99
2017-12-19T08:22:11.542Z,86.69
2017-12-19T08:22:50.806Z,86.98
2017-12-19T08:23:51.234Z,87.73
2017-12-19T08:24:51.656Z,87.54
2017-12-19T08:25:52.063Z,87.83
2017-12-19T08:26:52.490Z,87.92
2017-12-19T08:28:14.065Z,88.11
2017-12-19T08:28:53.328Z,88.49
2017-12-19T08:29:53.747Z,88.78
2017-12-19T08:30:54.229Z,88.49
2017-12-19T08:31:54.580Z,88.21
2017-12-19T08:32:55.009Z,87.12
2017-12-19T08:34:16.579Z,85.23
2017-12-19T08:34:55.846Z,84.00
2017-12-19T08:35:56.261Z,84.85
2017-12-19T08:36:56.678Z,85.17
2017-12-19T08:37:57.111Z,85.89
2017-12-19T08:38:57.522Z,85.93
2017-12-19T08:40:19.117Z,86.50
2017-12-19T08:40:58.398Z,86.79
2017-12-19T08:41:58.780Z,87.16
2017-12-19T08:42:59.205Z,86.41
2017-12-19T08:43:59.639Z,85.93
2017-12-19T08:45:00.043Z,86.03
2017-12-19T08:46:21.635Z,86.69
2017-12-19T08:47:00.905Z,87.16
2017-12-19T08:48:01.309Z,87.54
2017-12-19T08:49:01.725Z,87.26
2017-12-19T08:50:02.141Z,88.02
2017-12-19T08:51:02.563Z,88.11
2017-12-19T08:52:24.139Z,88.59
2017-12-19T08:53:03.400Z,88.21
2017-12-19T08:54:03.824Z,87.83
2017-12-19T08:55:04.239Z,88.02
2017-12-19T08:56:04.723Z,88.40
2017-12-19T08:57:05.110Z,88.96
2017-12-19T08:58:26.656Z,88.96
2017-12-19T08:59:05.923Z,88.49
2017-12-19T09:00:06.341Z,89.53
2017-12-19T09:01:06.770Z,89.91
2017-12-19T09:02:07.182Z,90.29
2017-12-19T09:03:07.600Z,90.10
2017-12-19T09:04:29.186Z,90.29
2017-12-19T09:05:08.453Z,90.10
2017-12-19T09:06:08.871Z,89.44
2017-12-19T09:07:09.283Z,88.87
2017-12-19T09:08:09.707Z,88.11
2017-12-19T09:09:10.139Z,87.92
2017-12-19T09:10:31.693Z,85.65
2017-12-19T09:11:10.971Z,84.80
2017-12-19T09:12:11.394Z,84.42
2017-12-19T09:13:11.810Z,84.04
2017-12-19T09:14:12.227Z,83.66
2017-12-19T09:15:12.648Z,82.90
2017-12-19T09:16:34.218Z,83.28
2017-12-19T09:17:13.483Z,83.00
2017-12-19T09:18:13.901Z,83.09
2017-12-19T09:19:14.324Z,82.52
2017-12-19T09:20:14.747Z,82.52
2017-12-19T09:21:15.171Z,82.05
2017-12-19T09:22:36.743Z,81.48
2017-12-19T09:23:16.007Z,82.14
2017-12-19T09:24:16.426Z,82.43
2017-12-19T09:25:16.842Z,82.52
2017-12-19T09:26:17.270Z,83.37
2017-12-19T09:27:17.684Z,83.85
2017-12-19T09:28:39.304Z,82.71
2017-12-19T09:29:18.527Z,81.48
2017-12-19T09:30:18.941Z,81.57
2017-12-19T09:31:19.389Z,81.86
2017-12-19T09:32:19.797Z,81.95
2017-12-19T09:33:20.205Z,81.01
2017-12-19T09:34:41.781Z,79.49
2017-12-19T09:35:21.050Z,79.02
2017-12-19T09:36:21.464Z,78.88
2017-12-19T09:37:21.888Z,78.03
2017-12-19T09:38:22.317Z,77.59
2017-12-19T09:39:22.727Z,77.27
2017-12-19T09:40:44.321Z,75.57
2017-12-19T09:41:23.564Z,75.47
2017-12-19T09:42:23.984Z,74.33
2017-12-19T09:43:24.413Z,74.15
2017-12-19T09:44:24.847Z,74.05
2017-12-19T09:45:25.246Z,73.90
2017-12-19T09:46:46.827Z,74.85
2017-12-19T09:47:26.102Z,74.75
2017-12-19T09:48:26.512Z,75.42
2017-12-19T09:49:26.934Z,74.81
2017-12-19T09:50:27.351Z,74.95
2017-12-19T09:51:27.766Z,75.04
2017-12-19T09:52:49.354Z,75.79
2017-12-19T09:53:28.618Z,77.88
2017-12-19T09:54:29.022Z,77.40
2017-12-19T09:55:29.457Z,76.08
2017-12-19T09:56:29.865Z,75.70
2017-12-19T09:57:30.296Z,76.08
2017-12-19T09:58:51.865Z,76.74
2017-12-19T09:59:31.126Z,77.69
2017-12-19T10:00:31.548Z,77.40
2017-12-19T10:01:31.966Z,77.69
2017-12-19T10:02:32.384Z,78.35
2017-12-19T10:03:32.805Z,79.21
2017-12-19T10:04:54.386Z,79.68
2017-12-19T10:05:33.649Z,78.54
2017-12-19T10:06:34.069Z,78.26
2017-12-19T10:07:34.502Z,77.97
2017-12-19T10:08:34.917Z,79.30
2017-12-19T10:09:35.343Z,79.21
2017-12-19T10:10:56.903Z,79.68
2017-12-19T10:11:36.178Z,79.02
2017-12-19T10:12:36.613Z,79.49
2017-12-19T10:13:37.124Z,78.92
2017-12-19T10:14:37.443Z,77.97
2017-12-19T10:15:37.858Z,78.26
2017-12-19T10:16:59.432Z,77.69
2017-12-19T10:17:38.727Z,77.40
2017-12-19T10:18:39.111Z,77.59
2017-12-19T10:19:39.582Z,78.26
2017-12-19T10:20:39.968Z,77.40
2017-12-19T10:21:40.382Z,77.22
2017-12-19T10:23:01.947Z,77.12
2017-12-19T10:23:41.222Z,76.27
2017-12-19T10:24:41.644Z,76.93
2017-12-19T10:25:42.056Z,76.84
2017-12-19T10:26:42.477Z,76.74
2017-12-19T10:27:42.898Z,77.03
2017-12-19T10:29:04.472Z,77.22
2017-12-19T10:29:43.754Z,76.65
2017-12-19T10:30:44.173Z,76.27
2017-12-19T10:31:44.585Z,75.89
2017-12-19T10:32:45.011Z,76.55
2017-12-19T10:33:45.421Z,76.93
2017-12-19T10:35:07.005Z,77.31
2017-12-19T10:35:46.262Z,77.59
2017-12-19T10:36:46.701Z,77.69
2017-12-19T10:37:47.104Z,76.84
2017-12-19T10:38:47.534Z,75.42
2017-12-19T10:39:47.952Z,75.13
2017-12-19T10:41:09.528Z,74.85
2017-12-19T10:41:48.789Z,73.80
2017-12-19T10:42:49.201Z,73.33
2017-12-19T10:43:49.629Z,73.24
2017-12-19T10:44:50.066Z,73.80
2017-12-19T10:45:50.473Z,73.43
2017-12-19T10:47:12.044Z,73.24
2017-12-19T10:47:51.315Z,73.14
2017-12-19T10:48:51.733Z,73.33
2017-12-19T10:49:52.153Z,73.14
2017-12-19T10:50:52.570Z,73.24
2017-12-19T10:51:59.754Z,73.14
2017-12-19T10:53:14.629Z,73.05
2017-12-19T10:53:53.836Z,73.99
2017-12-19T10:54:54.253Z,74.22
2017-12-19T10:55:54.682Z,75.17
2017-12-19T10:56:55.095Z,75.13
2017-12-19T10:57:55.521Z,75.23
2017-12-19T10:59:17.094Z,75.45
2017-12-19T10:59:56.357Z,75.64
2017-12-19T11:00:56.780Z,76.12
2017-12-19T11:01:57.223Z,76.87
2017-12-19T11:02:57.703Z,77.92
2017-12-19T11:03:58.044Z,78.96
2017-12-19T11:05:19.635Z,80.00
2017-12-19T11:05:58.887Z,80.38
2017-12-19T11:06:59.314Z,78.77
2017-12-19T11:07:59.728Z,78.77
2017-12-19T11:09:00.145Z,77.06
2017-12-19T11:10:00.572Z,76.40
2017-12-19T11:11:22.147Z,75.93
2017-12-19T11:12:01.418Z,76.12
2017-12-19T11:13:01.835Z,74.98
2017-12-19T11:14:02.255Z,75.84
2017-12-19T11:15:02.729Z,75.84
2017-12-19T11:16:03.096Z,76.40
2017-12-19T11:17:24.672Z,77.64
2017-12-19T11:18:03.939Z,78.67
2017-12-19T11:19:04.349Z,78.67
2017-12-19T11:20:04.780Z,78.77
2017-12-19T11:21:05.193Z,78.87
2017-12-19T11:22:05.621Z,79.25
2017-12-19T11:23:27.192Z,79.25
2017-12-19T11:24:06.457Z,78.87
2017-12-19T11:25:06.878Z,79.15
2017-12-19T11:26:07.312Z,79.15
2017-12-19T11:27:07.722Z,79.82
2017-12-19T11:28:08.152Z,80.95
2017-12-19T11:29:29.770Z,81.33
2017-12-19T11:30:08.991Z,80.86
2017-12-19T11:31:09.516Z,78.02
2017-12-19T11:32:09.826Z,75.74
2017-12-19T11:33:10.255Z,0.00
2017-12-19T11:34:10.665Z,73.46
2017-12-19T11:35:32.244Z,73.37
2017-12-19T11:36:11.511Z,0.00
2017-12-19T11:37:11.930Z,0.00
2017-12-19T11:38:12.354Z,74.98
2017-12-19T11:39:12.778Z,74.88
2017-12-19T11:40:13.194Z,74.60
2017-12-19T11:41:34.777Z,73.56
2017-12-19T11:42:14.035Z,72.99
2017-12-19T11:43:14.453Z,73.37
2017-12-19T11:44:14.879Z,73.94
2017-12-19T11:45:15.300Z,74.79
2017-12-19T11:46:15.729Z,75.17
2017-12-19T11:47:37.305Z,74.41
2017-12-19T11:48:16.562Z,74.69
2017-12-19T11:49:16.982Z,73.84
2017-12-19T11:50:17.407Z,73.94
2017-12-19T11:51:17.828Z,73.18
2017-12-19T11:52:18.246Z,72.99
2017-12-19T11:53:39.830Z,72.89
2017-12-19T11:54:19.135Z,71.95
2017-12-19T11:55:19.505Z,70.72
2017-12-19T11:56:19.934Z,70.15
2017-12-19T11:57:20.354Z,69.57
2017-12-19T11:58:20.774Z,69.01
2017-12-19T11:59:42.359Z,68.54
2017-12-19T12:00:21.727Z,67.30
2017-12-19T12:01:22.043Z,66.26
2017-12-19T12:02:22.475Z,66.16
2017-12-19T12:03:22.883Z,65.41
2017-12-19T12:04:23.319Z,65.59
2017-12-19T12:05:44.879Z,65.31
2017-12-19T12:06:24.142Z,64.93
2017-12-19T12:07:24.567Z,64.08
2017-12-19T12:08:24.984Z,63.79
2017-12-19T12:09:25.405Z,63.32
2017-12-19T12:10:25.827Z,63.98
2017-12-19T12:11:47.406Z,63.79
2017-12-19T12:12:26.671Z,64.55
2017-12-19T12:13:27.088Z,64.90
2017-12-19T12:14:27.513Z,64.33
2017-12-19T12:15:27.940Z,64.04
2017-12-19T12:16:28.352Z,63.79
2017-12-19T12:17:49.929Z,64.14
2017-12-19T12:18:29.190Z,63.57
2017-12-19T12:19:29.619Z,63.10
2017-12-19T12:20:30.033Z,62.94
2017-12-19T12:21:30.465Z,63.32
2017-12-19T12:22:30.885Z,63.51
2017-12-19T12:23:52.452Z,62.94
2017-12-19T12:24:31.715Z,63.23
2017-12-19T12:25:32.136Z,62.37
2017-12-19T12:26:32.575Z,62.18
2017-12-19T12:27:32.976Z,62.24
2017-12-19T12:28:33.442Z,62.62
2017-12-19T12:29:54.976Z,62.62
2017-12-19T12:30:34.245Z,62.15
2017-12-19T12:31:34.665Z,61.77
2017-12-19T12:32:35.089Z,61.05
2017-12-19T12:33:35.580Z,61.90
2017-12-19T12:34:35.926Z,64.08
2017-12-19T12:35:57.520Z,65.78
2017-12-19T12:36:36.817Z,66.54
2017-12-19T12:37:37.190Z,66.07
2017-12-19T12:38:37.614Z,65.22
2017-12-19T12:39:38.032Z,64.55
2017-12-19T12:40:38.444Z,64.27
2017-12-19T12:42:00.025Z,63.79
2017-12-19T12:42:39.286Z,62.94
2017-12-19T12:43:39.710Z,61.99
2017-12-19T12:44:40.135Z,61.43
2017-12-19T12:45:40.558Z,60.86
2017-12-19T12:46:40.966Z,60.67
2017-12-19T12:48:02.553Z,60.95
2017-12-19T12:48:41.810Z,60.57
2017-12-19T12:49:42.229Z,59.72
2017-12-19T12:50:42.669Z,58.86
2017-12-19T12:51:43.085Z,58.67
2017-12-19T12:52:43.500Z,58.74
2017-12-19T12:54:05.070Z,58.58
2017-12-19T12:54:44.337Z,57.98
2017-12-19T12:55:44.765Z,57.64
2017-12-19T12:56:45.215Z,57.25
2017-12-19T12:57:45.642Z,57.35
2017-12-19T12:58:46.024Z,57.54